createdAt,value
2022-08-10T00:00:54.326Z,101091.31
2022-08-10T00:03:20.890Z,101092.25
2022-08-10T00:05:52.774Z,101080.59
2022-08-10T00:08:23.692Z,101078.00
2022-08-10T00:10:54.261Z,101084.22
2022-08-10T00:13:21.029Z,101080.69
2022-08-10T00:15:53.543Z,101082.50
2022-08-10T00:18:34.508Z,101075.31
2022-08-10T00:21:06.651Z,101073.59
2022-08-10T00:23:33.941Z,101077.16
2022-08-10T00:26:00.564Z,101073.59
2022-08-10T00:28:27.387Z,101073.59
2022-08-10T00:30:53.968Z,101073.59
2022-08-10T00:33:20.976Z,101073.59
2022-08-10T00:35:47.777Z,101075.44
2022-08-10T00:38:14.357Z,101074.56
2022-08-10T00:40:40.957Z,101075.44
2022-08-10T00:43:07.639Z,101082.62
2022-08-10T00:45:35.000Z,101072.75
2022-08-10T00:48:01.584Z,101082.62
2022-08-10T00:50:28.213Z,101072.75
2022-08-10T00:52:54.779Z,101068.34
2022-08-10T00:55:21.523Z,101079.94
2022-08-10T00:57:55.040Z,101078.09
2022-08-10T01:00:22.970Z,101073.72
2022-08-10T01:02:49.606Z,101084.44
2022-08-10T01:05:16.310Z,101084.44
2022-08-10T01:08:07.781Z,101079.94
2022-08-10T01:12:47.050Z,101081.75
2022-08-10T01:14:25.601Z,101069.28
2022-08-10T01:17:01.960Z,101071.97
2022-08-10T01:19:46.722Z,101080.91
2022-08-10T01:22:33.680Z,101070.25
2022-08-10T01:25:00.305Z,101075.62
2022-08-10T01:27:37.374Z,101077.31
2022-08-10T01:30:04.350Z,101077.31
2022-08-10T01:32:46.267Z,101078.28
2022-08-10T01:35:24.660Z,101085.38
2022-08-10T01:38:03.106Z,101076.47
2022-08-10T01:40:30.860Z,101082.69
2022-08-10T01:42:59.672Z,101088.16
2022-08-10T01:45:45.103Z,101079.25
2022-08-10T01:48:29.267Z,101081.06
2022-08-10T01:51:02.792Z,101088.16
2022-08-10T01:53:47.172Z,101091.78
2022-08-10T01:56:14.651Z,101083.75
2022-08-10T01:58:41.307Z,101086.44
2022-08-10T02:01:08.847Z,101083.75
2022-08-10T02:03:35.535Z,101079.38
2022-08-10T02:06:22.797Z,101086.44
2022-08-10T02:08:49.358Z,101089.97
2022-08-10T02:11:28.948Z,101080.22
2022-08-10T02:14:15.512Z,101080.22
2022-08-10T02:16:42.623Z,101085.56
2022-08-10T02:19:09.672Z,101074.00
2022-08-10T02:21:38.713Z,101065.97
2022-08-10T02:24:25.253Z,101081.19
2022-08-10T02:26:59.741Z,101083.88
2022-08-10T02:29:26.516Z,101091.91
2022-08-10T02:31:53.132Z,101078.50
2022-08-10T02:34:20.847Z,101077.63
2022-08-10T02:36:49.572Z,101095.44
2022-08-10T02:39:16.623Z,101093.69
2022-08-10T02:45:02.552Z,101092.84
2022-08-10T02:45:26.411Z,101085.75
2022-08-10T02:47:54.393Z,101091.00
2022-08-10T02:50:33.854Z,101094.59
2022-08-10T02:53:03.439Z,101098.19
2022-08-10T02:55:50.787Z,101102.69
2022-08-10T02:58:22.763Z,101098.19
2022-08-10T03:00:52.095Z,101107.19
2022-08-10T03:03:25.258Z,101093.78
2022-08-10T03:05:55.294Z,101101.84
2022-08-10T03:08:24.779Z,101107.19
2022-08-10T03:10:51.343Z,101104.50
2022-08-10T03:13:17.911Z,101109.88
2022-08-10T03:15:44.479Z,101105.47
2022-08-10T03:18:11.031Z,101110.84
2022-08-10T03:20:40.244Z,101111.69
2022-08-10T03:23:12.994Z,101112.56
2022-08-10T03:25:39.583Z,101117.91
2022-08-10T03:28:06.192Z,101122.41
2022-08-10T03:30:34.311Z,101123.25
2022-08-10T03:33:02.852Z,101123.38
2022-08-10T03:35:29.415Z,101127.88
2022-08-10T03:37:59.510Z,101132.25
2022-08-10T03:40:45.643Z,101119.84
2022-08-10T03:43:15.819Z,101131.41
2022-08-10T03:45:49.393Z,101126.03
2022-08-10T03:48:23.252Z,101129.59
2022-08-10T03:50:52.228Z,101134.09
2022-08-10T03:54:03.791Z,101126.03
2022-08-10T03:56:30.495Z,101126.03
2022-08-10T03:58:52.458Z,101127.75
2022-08-10T04:01:19.167Z,101134.94
2022-08-10T04:03:45.829Z,101139.44
2022-08-10T04:06:12.394Z,101147.47
2022-08-10T04:08:42.167Z,101141.25
2022-08-10T04:11:12.070Z,101144.69
2022-08-10T04:13:38.661Z,101146.63
2022-08-10T04:16:07.428Z,101141.25
2022-08-10T04:18:34.495Z,101142.13
2022-08-10T04:21:12.676Z,101148.34
2022-08-10T04:23:43.563Z,101148.34
2022-08-10T04:26:11.423Z,101148.34
2022-08-10T04:28:37.982Z,101144.81
2022-08-10T04:31:05.257Z,101143.09
2022-08-10T04:33:32.126Z,101141.25
2022-08-10T04:35:58.936Z,101142.13
2022-08-10T04:38:25.617Z,101145.75
2022-08-10T04:40:52.199Z,101138.59
2022-08-10T04:43:18.786Z,101144.81
2022-08-10T04:45:48.264Z,101141.25
2022-08-10T04:48:40.551Z,101142.13
2022-08-10T04:51:04.727Z,101138.59
2022-08-10T04:53:31.323Z,101144.69
2022-08-10T04:55:58.006Z,101151.87
2022-08-10T04:58:24.574Z,101149.19
2022-08-10T05:00:51.196Z,101150.06
2022-08-10T05:03:17.843Z,101151.78
2022-08-10T05:05:44.443Z,101151.78
2022-08-10T05:08:11.007Z,101156.28
2022-08-10T05:10:37.580Z,101149.09
2022-08-10T05:13:04.146Z,101154.44
2022-08-10T05:15:31.570Z,101148.22
2022-08-10T05:18:08.893Z,101155.31
2022-08-10T05:20:38.727Z,101155.41
2022-08-10T05:23:05.310Z,101157.91
2022-08-10T05:25:32.837Z,101151.78
2022-08-10T05:28:06.544Z,101155.50
2022-08-10T05:30:34.157Z,101154.84
2022-08-10T05:33:05.065Z,101153.22
2022-08-10T05:35:56.526Z,101152.53
2022-08-10T05:38:21.494Z,101152.72
2022-08-10T05:40:48.451Z,101144.97
2022-08-10T05:43:19.513Z,101149.47
2022-08-10T05:46:19.013Z,101143.41
2022-08-10T05:48:56.088Z,101153.38
2022-08-10T05:51:20.825Z,101148.19
2022-08-10T05:54:02.200Z,101151.97
2022-08-10T05:56:56.057Z,101154.94
2022-08-10T06:00:11.302Z,101153.31
2022-08-10T06:02:34.164Z,101153.59
2022-08-10T06:04:52.875Z,101146.53
2022-08-10T06:07:21.814Z,101149.37
2022-08-10T06:09:58.569Z,101155.00
2022-08-10T06:12:30.153Z,101151.84
2022-08-10T06:15:05.188Z,101153.81
2022-08-10T06:17:32.059Z,101157.38
2022-08-10T06:19:58.904Z,101152.00
2022-08-10T06:22:30.116Z,101146.66
2022-08-10T06:25:26.856Z,101152.97
2022-08-10T06:27:43.737Z,101150.47
2022-08-10T06:30:20.733Z,101147.78
2022-08-10T06:32:49.855Z,101135.94
2022-08-10T06:35:16.781Z,101143.13
2022-08-10T06:37:43.494Z,101142.34
2022-08-10T06:40:17.805Z,101146.81
2022-08-10T06:42:47.199Z,101144.94
2022-08-10T06:45:16.728Z,101144.94
2022-08-10T06:47:53.957Z,101133.44
2022-08-10T06:50:45.270Z,101143.72
2022-08-10T06:53:16.303Z,101145.34
2022-08-10T06:55:50.285Z,101142.31
2022-08-10T06:58:26.661Z,101141.72
2022-08-10T07:00:53.739Z,101137.41
2022-08-10T07:03:20.414Z,101134.44
2022-08-10T07:05:51.174Z,101138.84
2022-08-10T07:08:21.436Z,101139.91
2022-08-10T07:10:50.967Z,101148.87
2022-08-10T07:14:16.147Z,101145.53
2022-08-10T07:16:05.082Z,101144.41
2022-08-10T07:18:31.699Z,101137.12
2022-08-10T07:20:58.778Z,101133.41
2022-08-10T07:23:57.815Z,101134.16
2022-08-10T07:26:13.411Z,101131.22
2022-08-10T07:28:39.999Z,101129.69
2022-08-10T07:31:55.216Z,101128.75
2022-08-10T07:33:55.099Z,101132.13
2022-08-10T07:36:24.779Z,101126.50
2022-08-10T07:38:51.931Z,101126.31
2022-08-10T07:41:18.710Z,101118.75
2022-08-10T07:43:45.382Z,101129.97
2022-08-10T07:46:14.647Z,101133.31
2022-08-10T07:48:44.407Z,101126.72
2022-08-10T07:51:10.992Z,101128.16
2022-08-10T07:53:44.077Z,101135.13
2022-08-10T07:56:31.997Z,101126.78
2022-08-10T07:59:20.078Z,101134.56
2022-08-10T08:01:54.533Z,101122.56
2022-08-10T08:04:22.208Z,101131.09
2022-08-10T08:06:49.039Z,101134.50
2022-08-10T08:09:15.694Z,101126.16
2022-08-10T08:11:43.636Z,101133.13
2022-08-10T08:14:10.906Z,101130.44
2022-08-10T08:16:38.970Z,101127.47
2022-08-10T08:24:10.888Z,101113.97
2022-08-10T08:24:39.298Z,101126.88
2022-08-10T08:27:06.340Z,101123.03
2022-08-10T08:29:37.430Z,101122.81
2022-08-10T08:32:04.593Z,101123.59
2022-08-10T08:34:36.670Z,101118.25
2022-08-10T08:37:03.545Z,101114.47
2022-08-10T08:39:31.883Z,101119.62
2022-08-10T08:42:01.480Z,101114.47
2022-08-10T08:44:31.624Z,101114.47
2022-08-10T08:48:03.278Z,101113.97
2022-08-10T08:50:16.770Z,101109.13
2022-08-10T08:54:02.494Z,101106.97
2022-08-10T08:56:52.343Z,101096.59
2022-08-10T08:59:48.324Z,101111.84
2022-08-10T09:02:23.739Z,101101.63
2022-08-10T09:05:01.410Z,101105.50
2022-08-10T09:08:01.963Z,101104.97
2022-08-10T09:10:54.378Z,101109.56
2022-08-10T09:13:38.363Z,101105.34
2022-08-10T09:16:27.800Z,101108.28
2022-08-10T09:19:19.778Z,101099.28
2022-08-10T09:22:17.630Z,101103.62
2022-08-10T09:24:57.876Z,101099.19
2022-08-10T09:27:35.409Z,101093.25
2022-08-10T09:30:09.747Z,101094.31
2022-08-10T09:36:15.896Z,101090.84
2022-08-10T09:36:22.796Z,101097.16
2022-08-10T09:40:48.552Z,101092.75
2022-08-10T09:43:14.250Z,101090.25
2022-08-10T09:45:53.227Z,101089.31
2022-08-10T09:48:45.774Z,101081.19
2022-08-10T09:51:45.820Z,101082.22
2022-08-10T09:54:35.138Z,101081.56
2022-08-10T09:57:43.334Z,101079.75
2022-08-10T10:00:12.691Z,101073.59
2022-08-10T10:03:01.013Z,101075.31
2022-08-10T10:05:51.845Z,101074.69
2022-08-10T10:08:18.747Z,101067.47
2022-08-10T10:11:04.878Z,101061.28
2022-08-10T10:14:03.379Z,101056.00
2022-08-10T10:16:43.599Z,101071.94
2022-08-10T10:19:45.541Z,101064.09
2022-08-10T10:22:28.044Z,101064.09
2022-08-10T10:25:20.639Z,101063.06
2022-08-10T10:28:07.957Z,101055.84
2022-08-10T10:30:38.797Z,101049.63
2022-08-10T10:33:41.738Z,101056.59
2022-08-10T10:36:08.333Z,101039.72
2022-08-10T10:38:36.179Z,101036.28
2022-08-10T10:41:24.108Z,101036.34
2022-08-10T10:44:01.412Z,101033.00
2022-08-10T10:46:57.417Z,101032.38
2022-08-10T10:49:42.819Z,101033.53
2022-08-10T10:52:28.590Z,101031.16
2022-08-10T10:55:13.716Z,101027.03
2022-08-10T10:58:01.287Z,101026.00
2022-08-10T11:00:53.683Z,101018.75
2022-08-10T11:03:45.212Z,101015.25
2022-08-10T11:06:19.199Z,101021.88
2022-08-10T11:08:52.155Z,101022.47
2022-08-10T11:12:01.523Z,101023.34
2022-08-10T11:14:44.317Z,101019.81
2022-08-10T11:17:39.491Z,101017.31
2022-08-10T11:20:23.434Z,101013.88
2022-08-10T11:23:15.878Z,101005.25
2022-08-10T11:25:44.875Z,101004.41
2022-08-10T11:28:22.167Z,100999.31
2022-08-10T11:31:12.179Z,101000.78
2022-08-10T11:34:46.518Z,101003.00
2022-08-10T11:37:04.066Z,100998.75
2022-08-10T11:39:48.872Z,101000.56
2022-08-10T11:42:31.576Z,101007.63
2022-08-10T11:45:10.375Z,100998.75
2022-08-10T11:48:53.209Z,100991.53
2022-08-10T11:51:06.210Z,100990.84
2022-08-10T11:53:39.346Z,100999.87
2022-08-10T11:56:09.743Z,101001.91
2022-08-10T11:58:58.431Z,100995.94
2022-08-10T12:01:27.751Z,100994.25
2022-08-10T12:03:54.312Z,100992.69
2022-08-10T12:06:39.165Z,100990.16
2022-08-10T12:10:09.788Z,100996.69
2022-08-10T12:11:54.498Z,100988.84
2022-08-10T12:14:45.915Z,100997.75
2022-08-10T12:17:34.187Z,100989.75
2022-08-10T12:20:32.593Z,100988.00
2022-08-10T12:23:07.713Z,100982.66
2022-08-10T12:25:56.522Z,100986.19
2022-08-10T12:28:50.912Z,100983.59
2022-08-10T12:31:21.317Z,100986.37
2022-08-10T12:34:11.865Z,100981.19
2022-08-10T12:36:41.639Z,100978.59
2022-08-10T12:39:20.614Z,100983.84
2022-08-10T12:42:12.796Z,100983.84
2022-08-10T12:45:05.846Z,100975.94
2022-08-10T12:47:44.799Z,100961.81
2022-08-10T12:50:30.735Z,100958.47
2022-08-10T12:53:17.663Z,100967.47
2022-08-10T12:55:44.455Z,100949.75
2022-08-10T12:58:59.395Z,100958.75
2022-08-10T13:01:17.814Z,100954.38
2022-08-10T13:04:21.202Z,100956.09
2022-08-10T13:06:47.712Z,100945.66
2022-08-10T13:09:14.975Z,100960.81
2022-08-10T13:12:36.344Z,100952.91
2022-08-10T13:14:46.079Z,100951.94
2022-08-10T13:17:13.961Z,100952.09
2022-08-10T13:19:55.026Z,100961.06
2022-08-10T13:22:23.800Z,100950.56
2022-08-10T13:24:55.540Z,100953.31
2022-08-10T13:28:00.521Z,100943.66
2022-08-10T13:30:35.574Z,100938.50
2022-08-10T13:33:05.283Z,100929.72
2022-08-10T13:35:31.856Z,100930.59
2022-08-10T13:37:58.462Z,100937.84
2022-08-10T13:40:25.492Z,100934.31
2022-08-10T13:42:52.290Z,100938.94
2022-08-10T13:45:22.971Z,100932.22
2022-08-10T13:47:50.818Z,100929.03
2022-08-10T13:50:35.065Z,100928.53
2022-08-10T13:53:11.583Z,100921.09
2022-08-10T13:55:54.244Z,100922.72
2022-08-10T13:58:24.034Z,100915.75
2022-08-10T14:00:50.612Z,100921.03
2022-08-10T14:03:17.357Z,100899.59
2022-08-10T14:05:48.415Z,100904.56
2022-08-10T14:08:17.621Z,100908.66
2022-08-10T14:11:05.401Z,100907.44
2022-08-10T14:13:30.923Z,100901.81
2022-08-10T14:15:57.585Z,100908.59
2022-08-10T14:18:24.268Z,100900.41
2022-08-10T14:20:50.854Z,100901.94
2022-08-10T14:23:17.439Z,100896.31
2022-08-10T14:25:51.285Z,100890.69
2022-08-10T14:28:19.531Z,100900.25
2022-08-10T14:30:46.402Z,100894.69
2022-08-10T14:33:14.000Z,100889.06
2022-08-10T14:36:21.177Z,100885.28
2022-08-10T14:38:32.283Z,100885.34
2022-08-10T14:41:00.499Z,100882.50
2022-08-10T14:43:45.862Z,100885.78
2022-08-10T14:46:18.447Z,100882.88
2022-08-10T14:48:47.020Z,100887.19
2022-08-10T14:51:18.079Z,100879.81
2022-08-10T14:53:50.036Z,100880.47
2022-08-10T14:56:17.597Z,100874.09
2022-08-10T14:59:05.371Z,100876.66
2022-08-10T15:02:00.720Z,100878.38
2022-08-10T15:04:22.055Z,100876.47
2022-08-10T15:06:54.954Z,100875.41
2022-08-10T15:09:23.527Z,100866.41
2022-08-10T15:12:14.039Z,100863.56
2022-08-10T15:14:44.783Z,100859.91
2022-08-10T15:17:13.741Z,100880.28
2022-08-10T15:20:03.606Z,100863.25
2022-08-10T15:22:38.522Z,100866.72
2022-08-10T15:25:18.848Z,100868.44
2022-08-10T15:27:54.758Z,100871.00
2022-08-10T15:30:22.888Z,100876.25
2022-08-10T15:33:15.302Z,100868.03
2022-08-10T15:36:06.954Z,100873.28
2022-08-10T15:38:40.590Z,100862.56
2022-08-10T15:41:11.874Z,100866.03
2022-08-10T15:43:44.589Z,100866.88
2022-08-10T15:46:29.728Z,100865.06
2022-08-10T15:49:00.265Z,100865.91
2022-08-10T15:51:54.246Z,100868.47
2022-08-10T15:54:33.415Z,100866.69
2022-08-10T15:57:08.214Z,100865.72
2022-08-10T15:59:47.519Z,100869.25
2022-08-10T16:02:20.769Z,100863.78
2022-08-10T16:05:18.843Z,100866.47
2022-08-10T16:07:57.782Z,100877.00
2022-08-10T16:10:28.567Z,100867.13
2022-08-10T16:13:50.838Z,100868.00
2022-08-10T16:15:59.923Z,100867.91
2022-08-10T16:18:27.182Z,100868.78
2022-08-10T16:20:56.263Z,100862.56
2022-08-10T16:23:30.516Z,100866.09
2022-08-10T16:26:04.571Z,100875.88
2022-08-10T16:28:50.136Z,100876.72
2022-08-10T16:31:20.571Z,100869.44
2022-08-10T16:33:55.353Z,100861.41
2022-08-10T16:36:22.485Z,100868.59
2022-08-10T16:38:50.038Z,100877.41
2022-08-10T16:42:00.301Z,100861.31
2022-08-10T16:44:05.066Z,100865.72
2022-08-10T16:46:31.916Z,100868.28
2022-08-10T16:48:58.602Z,100863.03
2022-08-10T16:51:25.170Z,100867.44
2022-08-10T16:53:51.910Z,100878.88
2022-08-10T16:56:24.344Z,100867.31
2022-08-10T16:58:54.656Z,100865.50
2022-08-10T17:01:23.336Z,100866.34
2022-08-10T17:04:06.699Z,100866.34
2022-08-10T17:06:40.921Z,100870.78
2022-08-10T17:09:12.887Z,100880.50
2022-08-10T17:11:40.214Z,100877.84
2022-08-10T17:14:08.336Z,100867.13
2022-08-10T17:16:36.503Z,100878.69
2022-08-10T17:19:03.415Z,100875.91
2022-08-10T17:21:31.555Z,100880.41
2022-08-10T17:24:00.223Z,100879.56
2022-08-10T17:26:36.986Z,100883.94
2022-08-10T17:29:58.447Z,100889.28
2022-08-10T17:32:18.545Z,100897.25
2022-08-10T17:34:46.761Z,100895.22
2022-08-10T17:37:17.803Z,100897.03
2022-08-10T17:39:59.570Z,100897.13
2022-08-10T17:42:26.185Z,100898.97
2022-08-10T17:44:53.336Z,100905.19
2022-08-10T17:47:20.060Z,100903.47
2022-08-10T17:49:46.628Z,100907.84
2022-08-10T17:52:21.069Z,100895.44
2022-08-10T17:54:53.140Z,100902.50
2022-08-10T17:57:21.101Z,100902.50
2022-08-10T17:59:48.660Z,100904.22
2022-08-10T18:02:20.140Z,100901.53
2022-08-10T18:04:49.617Z,100899.72
2022-08-10T18:07:16.265Z,100909.50
2022-08-10T18:09:47.550Z,100910.41
2022-08-10T18:12:18.259Z,100909.56
2022-08-10T18:14:46.827Z,100906.81
2022-08-10T18:17:15.177Z,100912.16
2022-08-10T18:19:43.686Z,100910.22
2022-08-10T18:22:11.892Z,100913.88
2022-08-10T18:24:38.845Z,100912.06
2022-08-10T18:27:05.490Z,100920.94
2022-08-10T18:29:32.093Z,100920.09
2022-08-10T18:32:02.961Z,100922.78
2022-08-10T18:34:32.153Z,100931.66
2022-08-10T18:36:58.759Z,100926.31
2022-08-10T18:39:29.725Z,100928.97
2022-08-10T18:42:05.372Z,100927.16
2022-08-10T18:44:35.343Z,100936.06
2022-08-10T18:47:04.463Z,100934.22
2022-08-10T18:49:41.237Z,100939.59
2022-08-10T18:52:08.994Z,100939.59
2022-08-10T18:54:44.504Z,100944.94
2022-08-10T18:57:33.253Z,100944.94
2022-08-10T19:00:12.787Z,100949.34
2022-08-10T19:03:01.059Z,100946.66
2022-08-10T19:05:50.341Z,100947.62
2022-08-10T19:08:32.159Z,100948.47
2022-08-10T19:11:09.131Z,100947.53
2022-08-10T19:13:41.652Z,100963.63
2022-08-10T19:16:26.718Z,100953.75
2022-08-10T19:19:22.253Z,100952.91
2022-08-10T19:22:07.220Z,100964.47
2022-08-10T19:24:50.728Z,100962.72
2022-08-10T19:27:35.971Z,100976.03
2022-08-10T19:30:11.879Z,100968.00
2022-08-10T19:33:05.366Z,100968.00
2022-08-10T19:36:04.154Z,100968.87
2022-08-10T19:39:04.520Z,100971.53
2022-08-10T19:41:45.300Z,100969.84
2022-08-10T19:45:03.166Z,100968.00
2022-08-10T19:47:38.942Z,100967.16
2022-08-10T19:50:09.452Z,100968.87
2022-08-10T19:52:43.514Z,100969.72
2022-08-10T19:55:28.966Z,100974.22
2022-08-10T19:58:20.420Z,100975.06
2022-08-10T20:01:02.816Z,100969.72
2022-08-10T20:03:42.013Z,100973.38
2022-08-10T20:06:23.757Z,100976.91
2022-08-10T20:09:06.896Z,100976.91
2022-08-10T20:11:59.343Z,100982.25
2022-08-10T20:14:29.491Z,100981.41
2022-08-10T20:17:01.199Z,100980.44
2022-08-10T20:19:53.198Z,100982.25
2022-08-10T20:22:28.980Z,100984.94
2022-08-10T20:25:14.117Z,100981.41
2022-08-10T20:27:59.498Z,100988.47
2022-08-10T20:30:38.015Z,100994.69
2022-08-10T20:33:15.769Z,100991.03
2022-08-10T20:35:47.394Z,101001.75
2022-08-10T20:38:19.753Z,101002.72
2022-08-10T20:40:55.059Z,101007.97
2022-08-10T20:43:34.669Z,101009.03
2022-08-10T20:46:08.817Z,101014.28
2022-08-10T20:48:42.306Z,101014.28
2022-08-10T20:51:13.439Z,101016.13
2022-08-10T20:53:45.431Z,101025.12
2022-08-10T20:57:07.122Z,101026.81
2022-08-10T21:00:10.999Z,101020.63
2022-08-10T21:02:59.695Z,101027.69
2022-08-10T21:06:02.508Z,101023.28
2022-08-10T21:08:39.643Z,101032.19
2022-08-10T21:11:35.730Z,101028.66
2022-08-10T21:14:28.157Z,101034.88
2022-08-10T21:17:18.012Z,101025.97
2022-08-10T21:20:11.968Z,101023.28
2022-08-10T21:22:46.559Z,101029.50
2022-08-10T21:25:20.616Z,101026.81
2022-08-10T21:27:59.008Z,101032.19
2022-08-10T21:31:03.902Z,101030.47
2022-08-10T21:33:30.953Z,101037.53
2022-08-10T21:36:05.867Z,101033.16
2022-08-10T21:38:48.641Z,101029.63
2022-08-10T21:41:57.385Z,101036.69
2022-08-10T21:45:09.069Z,101032.06
2022-08-10T21:48:30.087Z,101025.00
2022-08-10T21:51:24.199Z,101030.37
2022-08-10T21:54:25.945Z,101030.47
2022-08-10T21:57:43.204Z,101033.16
2022-08-10T22:00:31.416Z,101035.84
2022-08-10T22:03:17.803Z,101032.28
2022-08-10T22:06:07.315Z,101034.13
2022-08-10T22:09:03.919Z,101032.38
2022-08-10T22:11:50.636Z,101033.16
2022-08-10T22:14:47.086Z,101029.63
2022-08-10T22:18:01.103Z,101029.63
2022-08-10T22:20:56.345Z,101026.09
2022-08-10T22:23:41.432Z,101026.09
2022-08-10T22:26:37.948Z,101028.75
2022-08-10T22:29:42.830Z,101026.94
2022-08-10T22:33:09.005Z,101026.94
2022-08-10T22:36:12.583Z,101029.63
2022-08-10T22:40:07.068Z,101029.69
2022-08-10T22:42:59.459Z,101028.75
2022-08-10T22:45:45.815Z,101034.13
2022-08-10T22:48:30.968Z,101024.34
2022-08-10T22:51:04.275Z,101027.00
2022-08-10T22:53:53.988Z,101029.69
2022-08-10T22:56:39.610Z,101028.84
2022-08-10T22:59:06.364Z,101030.66
2022-08-10T23:02:08.352Z,101030.66
2022-08-10T23:04:45.279Z,101028.84
2022-08-10T23:07:17.847Z,101032.38
2022-08-10T23:10:05.986Z,101028.84
2022-08-10T23:12:39.554Z,101036.87
2022-08-10T23:15:25.959Z,101029.69
2022-08-10T23:18:14.943Z,101037.72
2022-08-10T23:20:42.031Z,101035.03
2022-08-10T23:23:10.907Z,101031.50
2022-08-10T23:25:56.410Z,101032.38
2022-08-10T23:28:38.587Z,101026.16
2022-08-10T23:31:10.903Z,101028.84
2022-08-10T23:33:38.529Z,101011.91
2022-08-10T23:36:33.925Z,101025.31
2022-08-10T23:38:57.157Z,101021.75
2022-08-10T23:41:38.820Z,101013.72
2022-08-10T23:44:05.404Z,101019.94
2022-08-10T23:46:37.944Z,101018.22
2022-08-10T23:49:04.713Z,101013.72
2022-08-10T23:51:54.490Z,101006.56
2022-08-10T23:54:22.580Z,101005.69
2022-08-10T23:56:51.680Z,101006.56
2022-08-10T23:59:21.010Z,101004.84
